Time,TemperatureF,DewpointF,PressureIn,WindDirection,WindDirectionDegrees,WindSpeedMPH,WindSpeedGustMPH,Humidity,HourlyPrecipIn,Conditions,Clouds,dailyrainin,SoftwareType,DateUTC
2013-02-03 00:00:00,13.6,8.9,30.09,NW,309,2.0,2.0,81,0.00,,,0.00,Wunderground v.1.15,2013-02-03 05:00:00,
2013-02-03 00:10:00,13.6,8.9,30.09,WNW,291,2.0,13.0,81,0.00,,,0.00,Wunderground v.1.15,2013-02-03 05:10:00,
2013-02-03 00:20:00,13.5,8.8,30.08,WNW,288,2.0,2.0,81,0.00,,,0.00,Wunderground v.1.15,2013-02-03 05:20:00,
2013-02-03 00:25:00,13.5,8.8,30.08,West,277,2.0,13.0,81,0.00,,,0.00,Wunderground v.1.15,2013-02-03 05:25:00,
2013-02-03 00:30:00,13.4,8.7,30.08,West,259,2.0,13.0,81,0.00,,,0.00,Wunderground v.1.15,2013-02-03 05:30:00,
2013-02-03 00:35:00,13.3,8.6,30.07,West,275,2.0,13.0,81,0.00,,,0.00,Wunderground v.1.15,2013-02-03 05:35:00,
2013-02-03 00:40:00,13.1,8.4,30.07,West,261,1.0,13.0,81,0.00,,,0.00,Wunderground v.1.15,2013-02-03 05:40:00,
2013-02-03 00:50:00,12.8,8.3,30.07,West,269,1.0,1.0,82,0.00,,,0.00,Wunderground v.1.15,2013-02-03 05:50:00,
2013-02-03 00:55:00,12.6,8.1,30.07,West,269,1.0,13.0,82,0.00,,,0.00,Wunderground v.1.15,2013-02-03 05:55:00,
2013-02-03 01:00:00,12.5,8.0,30.07,West,269,0.0,13.0,82,0.00,,,0.00,Wunderground v.1.15,2013-02-03 06:00:00,
2013-02-03 01:05:00,12.3,8.1,30.06,West,269,0.0,13.0,83,0.00,,,0.00,Wunderground v.1.15,2013-02-03 06:05:00,
2013-02-03 01:10:00,12.0,7.8,30.06,West,269,0.0,13.0,83,0.00,,,0.00,Wunderground v.1.15,2013-02-03 06:10:00,
2013-02-03 01:15:00,11.8,7.6,30.07,West,269,0.0,13.0,83,0.00,,,0.00,Wunderground v.1.15,2013-02-03 06:15:00,
2013-02-03 01:25:00,11.6,8.0,30.06,West,268,0.0,13.0,85,0.00,,,0.00,Wunderground v.1.15,2013-02-03 06:25:00,
2013-02-03 01:30:00,11.6,8.0,30.06,West,263,1.0,13.0,85,0.00,,,0.00,Wunderground v.1.15,2013-02-03 06:30:00,
2013-02-03 01:35:00,11.7,8.1,30.06,West,262,1.0,13.0,85,0.00,,,0.00,Wunderground v.1.15,2013-02-03 06:35:00,
2013-02-03 01:40:00,11.7,8.1,30.05,West,262,0.0,13.0,85,0.00,,,0.00,Wunderground v.1.15,2013-02-03 06:40:00,
2013-02-03 01:45:00,11.6,8.0,30.05,West,262,0.0,13.0,85,0.00,,,0.00,Wunderground v.1.15,2013-02-03 06:45:00,
2013-02-03 01:55:00,11.3,7.7,30.05,West,261,0.0,13.0,85,0.00,,,0.00,Wunderground v.1.15,2013-02-03 06:55:00,
2013-02-03 02:00:00,11.4,7.8,30.05,West,261,0.0,13.0,85,0.00,,,0.00,Wunderground v.1.15,2013-02-03 07:00:00,
2013-02-03 02:05:00,11.4,8.0,30.05,West,261,0.0,13.0,86,0.00,,,0.00,Wunderground v.1.15,2013-02-03 07:05:00,
2013-02-03 02:10:00,11.6,8.2,30.05,West,261,0.0,13.0,86,0.00,,,0.00,Wunderground v.1.15,2013-02-03 07:10:00,
2013-02-03 02:15:00,11.7,8.3,30.05,West,261,0.0,13.0,86,0.00,,,0.00,Wunderground v.1.15,2013-02-03 07:15:00,
2013-02-03 02:20:00,11.8,8.4,30.05,West,261,0.0,13.0,86,0.00,,,0.00,Wunderground v.1.15,2013-02-03 07:20:00,
2013-02-03 02:30:00,11.9,8.5,30.05,West,261,0.0,13.0,86,0.00,,,0.00,Wunderground v.1.15,2013-02-03 07:30:00,
2013-02-03 02:35:00,11.9,8.5,30.05,West,261,0.0,13.0,86,0.00,,,0.00,Wunderground v.1.15,2013-02-03 07:35:00,
2013-02-03 02:40:00,11.9,8.3,30.04,West,276,0.0,13.0,85,0.00,,,0.00,Wunderground v.1.15,2013-02-03 07:40:00,
2013-02-03 02:45:00,11.8,8.2,30.04,West,276,0.0,13.0,85,0.00,,,0.00,Wunderground v.1.15,2013-02-03 07:45:00,
2013-02-03 02:50:00,11.6,8.2,30.04,West,275,0.0,13.0,86,0.00,,,0.00,Wunderground v.1.15,2013-02-03 07:50:00,
2013-02-03 03:00:00,11.3,7.9,30.04,West,275,0.0,13.0,86,0.00,,,0.00,Wunderground v.1.15,2013-02-03 08:00:00,
2013-02-03 03:05:00,11.0,7.6,30.04,West,275,0.0,13.0,86,0.00,,,0.00,Wunderground v.1.15,2013-02-03 08:05:00,
2013-02-03 03:10:00,10.9,7.8,30.04,West,275,0.0,13.0,87,0.00,,,0.00,Wunderground v.1.15,2013-02-03 08:10:00,
2013-02-03 03:15:00,10.8,7.7,30.03,West,275,0.0,13.0,87,0.00,,,0.00,Wunderground v.1.15,2013-02-03 08:15:00,
2013-02-03 03:20:00,10.7,7.8,30.04,WSW,250,0.0,13.0,88,0.00,,,0.00,Wunderground v.1.15,2013-02-03 08:20:00,
2013-02-03 03:25:00,10.7,7.8,30.03,WSW,248,1.0,13.0,88,0.00,,,0.00,Wunderground v.1.15,2013-02-03 08:25:00,
2013-02-03 03:30:00,10.8,8.2,30.03,WSW,248,1.0,1.0,89,0.00,,,0.00,Wunderground v.1.15,2013-02-03 08:30:00,
2013-02-03 03:35:00,10.9,8.3,30.02,WSW,248,0.0,13.0,89,0.00,,,0.00,Wunderground v.1.15,2013-02-03 08:35:00,
2013-02-03 03:40:00,11.1,8.2,30.02,WSW,248,0.0,13.0,88,0.00,,,0.00,Wunderground v.1.15,2013-02-03 08:40:00,
2013-02-03 03:45:00,11.3,8.4,30.03,WSW,248,0.0,13.0,88,0.00,,,0.00,Wunderground v.1.15,2013-02-03 08:45:00,
2013-02-03 03:50:00,11.5,8.6,30.03,SW,228,1.0,1.0,88,0.00,,,0.00,Wunderground v.1.15,2013-02-03 08:50:00,
2013-02-03 03:55:00,11.7,8.8,30.02,SW,221,1.0,13.0,88,0.00,,,0.00,Wunderground v.1.15,2013-02-03 08:55:00,
2013-02-03 04:05:00,12.1,9.2,30.02,SW,221,0.0,13.0,88,0.00,,,0.00,Wunderground v.1.15,2013-02-03 09:05:00,
2013-02-03 04:10:00,12.3,9.4,30.02,SW,221,1.0,13.0,88,0.00,,,0.00,Wunderground v.1.15,2013-02-03 09:10:00,
2013-02-03 04:15:00,12.5,9.6,30.02,SW,221,0.0,13.0,88,0.00,,,0.00,Wunderground v.1.15,2013-02-03 09:15:00,
2013-02-03 04:20:00,12.6,9.7,30.01,SW,221,0.0,13.0,88,0.00,,,0.00,Wunderground v.1.15,2013-02-03 09:20:00,
2013-02-03 04:25:00,12.7,9.6,30.01,WSW,250,1.0,13.0,87,0.00,,,0.00,Wunderground v.1.15,2013-02-03 09:25:00,
2013-02-03 04:35:00,13.0,9.9,30.00,SW,233,1.0,13.0,87,0.00,,,0.00,Wunderground v.1.15,2013-02-03 09:35:00,
2013-02-03 04:40:00,13.0,10.1,30.00,West,259,1.0,13.0,88,0.00,,,0.00,Wunderground v.1.15,2013-02-03 09:40:00,
2013-02-03 04:45:00,13.1,10.2,30.00,West,271,1.0,13.0,88,0.00,,,0.00,Wunderground v.1.15,2013-02-03 09:45:00,
2013-02-03 04:50:00,13.1,10.2,30.00,West,281,1.0,13.0,88,0.00,,,0.00,Wunderground v.1.15,2013-02-03 09:50:00,
2013-02-03 04:55:00,13.1,10.0,30.00,West,261,2.0,13.0,87,0.00,,,0.00,Wunderground v.1.15,2013-02-03 09:55:00,
2013-02-03 05:00:00,13.1,10.2,30.00,WSW,250,2.0,2.0,88,0.00,,,0.00,Wunderground v.1.15,2013-02-03 10:00:00,
2013-02-03 05:10:00,13.2,10.3,30.00,WSW,249,1.0,13.0,88,0.00,,,0.00,Wunderground v.1.15,2013-02-03 10:10:00,
2013-02-03 05:15:00,13.2,10.6,30.00,WSW,249,1.0,13.0,89,0.00,,,0.00,Wunderground v.1.15,2013-02-03 10:15:00,
2013-02-03 05:20:00,13.3,10.7,30.00,WSW,250,1.0,13.0,89,0.00,,,0.00,Wunderground v.1.15,2013-02-03 10:20:00,
2013-02-03 05:25:00,13.4,10.8,30.00,SW,225,1.0,13.0,89,0.00,,,0.00,Wunderground v.1.15,2013-02-03 10:25:00,
2013-02-03 05:30:00,13.4,10.8,30.00,SW,225,1.0,1.0,89,0.00,,,0.00,Wunderground v.1.15,2013-02-03 10:30:00,
2013-02-03 05:40:00,13.5,10.9,30.00,SW,236,1.0,1.0,89,0.00,,,0.00,Wunderground v.1.15,2013-02-03 10:40:00,
2013-02-03 05:45:00,13.5,10.9,30.00,SW,236,1.0,13.0,89,0.00,,,0.00,Wunderground v.1.15,2013-02-03 10:45:00,
2013-02-03 05:50:00,13.6,11.0,30.01,SW,236,1.0,1.0,89,0.00,,,0.00,Wunderground v.1.15,2013-02-03 10:50:00,
2013-02-03 05:55:00,13.7,11.1,30.01,SW,220,1.0,4.0,89,0.00,,,0.00,Wunderground v.1.15,2013-02-03 10:55:00,
2013-02-03 06:00:00,13.7,11.1,30.01,WSW,254,1.0,1.0,89,0.00,,,0.00,Wunderground v.1.15,2013-02-03 11:00:00,
2013-02-03 06:10:00,13.8,11.2,30.00,West,278,1.0,2.0,89,0.00,,,0.00,Wunderground v.1.15,2013-02-03 11:10:00,
2013-02-03 06:15:00,13.8,11.2,30.00,SW,227,1.0,2.0,89,0.00,,,0.00,Wunderground v.1.15,2013-02-03 11:15:00,
2013-02-03 06:20:00,13.9,11.0,30.00,SW,234,1.0,3.0,88,0.00,,,0.00,Wunderground v.1.15,2013-02-03 11:20:00,
2013-02-03 06:25:00,13.9,11.3,30.00,SW,236,1.0,3.0,89,0.00,,,0.00,Wunderground v.1.15,2013-02-03 11:25:00,
2013-02-03 06:30:00,14.0,11.4,30.00,SW,232,1.0,1.0,89,0.00,,,0.00,Wunderground v.1.15,2013-02-03 11:30:00,
2013-02-03 06:35:00,14.0,11.4,30.00,SW,223,1.0,2.0,89,0.00,,,0.00,Wunderground v.1.15,2013-02-03 11:35:00,
2013-02-03 06:45:00,14.1,11.5,30.01,SW,229,2.0,2.0,89,0.00,,,0.00,Wunderground v.1.15,2013-02-03 11:45:00,
2013-02-03 06:50:00,14.2,11.6,30.01,SW,229,1.0,1.0,89,0.00,,,0.00,Wunderground v.1.15,2013-02-03 11:50:00,
2013-02-03 06:55:00,14.3,11.7,30.01,WSW,248,1.0,1.0,89,0.00,,,0.00,Wunderground v.1.15,2013-02-03 11:55:00,
2013-02-03 07:00:00,14.3,11.7,30.01,SW,220,1.0,1.0,89,0.00,,,0.00,Wunderground v.1.15,2013-02-03 12:00:00,
2013-02-03 07:05:00,14.4,11.8,30.01,SW,229,2.0,3.0,89,0.00,,,0.00,Wunderground v.1.15,2013-02-03 12:05:00,
2013-02-03 07:10:00,14.4,11.8,30.01,SW,221,2.0,2.0,89,0.00,,,0.00,Wunderground v.1.15,2013-02-03 12:10:00,
2013-02-03 07:20:00,14.6,11.9,30.01,SW,217,2.0,2.0,89,0.00,,,0.00,Wunderground v.1.15,2013-02-03 12:20:00,
2013-02-03 07:25:00,14.6,11.9,30.01,SW,231,2.0,4.0,89,0.00,,,0.00,Wunderground v.1.15,2013-02-03 12:25:00,
2013-02-03 07:30:00,14.6,11.9,30.02,SW,231,2.0,2.0,89,0.00,,,0.00,Wunderground v.1.15,2013-02-03 12:30:00,
2013-02-03 07:35:00,14.8,12.1,30.02,SW,229,1.0,4.0,89,0.00,,,0.00,Wunderground v.1.15,2013-02-03 12:35:00,
2013-02-03 07:40:00,14.8,12.1,30.02,SW,229,1.0,1.0,89,0.00,,,0.00,Wunderground v.1.15,2013-02-03 12:40:00,
2013-02-03 07:45:00,14.8,12.1,30.02,SSW,202,1.0,2.0,89,0.00,,,0.00,Wunderground v.1.15,2013-02-03 12:45:00,
2013-02-03 07:50:00,14.9,12.2,30.02,SW,224,2.0,4.0,89,0.00,,,0.00,Wunderground v.1.15,2013-02-03 12:50:00,
2013-02-03 08:00:00,14.9,12.5,30.02,SW,221,1.0,4.0,90,0.00,,,0.00,Wunderground v.1.15,2013-02-03 13:00:00,
2013-02-03 08:05:00,15.0,12.6,30.02,SW,221,1.0,4.0,90,0.00,,,0.00,Wunderground v.1.15,2013-02-03 13:05:00,
2013-02-03 08:10:00,15.0,12.6,30.02,SW,221,1.0,1.0,90,0.00,,,0.00,Wunderground v.1.15,2013-02-03 13:10:00,
2013-02-03 08:15:00,15.1,12.7,30.02,SW,221,1.0,4.0,90,0.00,,,0.00,Wunderground v.1.15,2013-02-03 13:15:00,
2013-02-03 08:20:00,15.1,12.7,30.02,SSW,208,1.0,4.0,90,0.00,,,0.00,Wunderground v.1.15,2013-02-03 13:20:00,
2013-02-03 08:25:00,15.2,13.0,30.02,SSW,209,1.0,4.0,91,0.00,,,0.00,Wunderground v.1.15,2013-02-03 13:25:00,
2013-02-03 08:30:00,15.2,13.0,30.02,SSW,207,1.0,4.0,91,0.00,,,0.00,Wunderground v.1.15,2013-02-03 13:30:00,
2013-02-03 08:40:00,15.3,13.1,30.02,SSW,206,1.0,4.0,91,0.00,,,0.00,Wunderground v.1.15,2013-02-03 13:40:00,
2013-02-03 08:45:00,15.3,13.1,30.02,SW,216,1.0,4.0,91,0.00,,,0.00,Wunderground v.1.15,2013-02-03 13:45:00,
2013-02-03 08:50:00,15.4,13.2,30.02,SSW,211,1.0,4.0,91,0.00,,,0.00,Wunderground v.1.15,2013-02-03 13:50:00,
2013-02-03 08:55:00,15.4,13.5,30.02,SW,214,2.0,4.0,92,0.00,,,0.00,Wunderground v.1.15,2013-02-03 13:55:00,
2013-02-03 09:00:00,15.5,13.6,30.02,SW,223,3.0,3.0,92,0.00,,,0.00,Wunderground v.1.15,2013-02-03 14:00:00,
2013-02-03 09:10:00,15.7,13.8,30.02,SW,221,2.0,2.0,92,0.00,,,0.00,Wunderground v.1.15,2013-02-03 14:10:00,
2013-02-03 09:15:00,15.8,14.1,30.02,SW,221,1.0,4.0,93,0.00,,,0.00,Wunderground v.1.15,2013-02-03 14:15:00,
2013-02-03 09:20:00,16.0,14.1,30.02,SW,221,0.0,4.0,92,0.00,,,0.00,Wunderground v.1.15,2013-02-03 14:20:00,
2013-02-03 09:30:00,16.3,14.4,30.02,SW,221,0.0,4.0,92,0.00,,,0.00,Wunderground v.1.15,2013-02-03 14:30:00,
2013-02-03 09:35:00,16.5,14.6,30.02,SW,222,1.0,4.0,92,0.00,,,0.00,Wunderground v.1.15,2013-02-03 14:35:00,
2013-02-03 09:40:00,16.6,14.7,30.02,SW,221,1.0,1.0,92,0.00,,,0.00,Wunderground v.1.15,2013-02-03 14:40:00,
2013-02-03 09:45:00,16.8,14.9,30.03,SW,221,1.0,2.0,92,0.00,,,0.00,Wunderground v.1.15,2013-02-03 14:45:00,
2013-02-03 09:50:00,16.8,14.9,30.02,SW,225,1.0,4.0,92,0.00,,,0.00,Wunderground v.1.15,2013-02-03 14:50:00,
2013-02-03 10:00:00,16.9,15.0,30.02,SW,224,1.0,1.0,92,0.00,,,0.00,Wunderground v.1.15,2013-02-03 15:00:00,
2013-02-03 10:05:00,17.1,15.2,30.02,SW,221,1.0,4.0,92,0.00,,,0.00,Wunderground v.1.15,2013-02-03 15:05:00,
2013-02-03 10:10:00,17.2,15.3,30.02,SW,214,2.0,4.0,92,0.00,,,0.00,Wunderground v.1.15,2013-02-03 15:10:00,
2013-02-03 10:15:00,17.3,15.4,30.02,SW,217,2.0,4.0,92,0.00,,,0.00,Wunderground v.1.15,2013-02-03 15:15:00,
2013-02-03 10:20:00,17.5,15.6,30.02,SW,217,2.0,4.0,92,0.00,,,0.00,Wunderground v.1.15,2013-02-03 15:20:00,
2013-02-03 10:25:00,17.6,15.7,30.02,SSW,213,2.0,4.0,92,0.00,,,0.00,Wunderground v.1.15,2013-02-03 15:25:00,
2013-02-03 10:35:00,17.9,16.0,30.02,SW,215,2.0,4.0,92,0.00,,,0.00,Wunderground v.1.15,2013-02-03 15:35:00,
2013-02-03 10:40:00,18.0,16.1,30.02,WSW,237,2.0,4.0,92,0.00,,,0.00,Wunderground v.1.15,2013-02-03 15:40:00,
2013-02-03 10:45:00,18.1,16.2,30.02,South,183,3.0,4.0,92,0.00,,,0.00,Wunderground v.1.15,2013-02-03 15:45:00,
2013-02-03 10:50:00,18.3,16.4,30.02,SW,233,2.0,4.0,92,0.00,,,0.00,Wunderground v.1.15,2013-02-03 15:50:00,
2013-02-03 10:55:00,18.6,16.7,30.02,WSW,255,2.0,4.0,92,0.00,,,0.00,Wunderground v.1.15,2013-02-03 15:55:00,
2013-02-03 11:05:00,19.1,17.2,30.03,West,269,2.0,6.0,92,0.00,,,0.00,Wunderground v.1.15,2013-02-03 16:05:00,
2013-02-03 11:10:00,19.3,17.4,30.03,WSW,243,3.0,4.0,92,0.00,,,0.00,Wunderground v.1.15,2013-02-03 16:10:00,
2013-02-03 11:15:00,19.6,17.7,30.03,West,277,3.0,4.0,92,0.00,,,0.00,Wunderground v.1.15,2013-02-03 16:15:00,
2013-02-03 11:20:00,19.7,17.8,30.03,WNW,288,3.0,4.0,92,0.00,,,0.00,Wunderground v.1.15,2013-02-03 16:20:00,
2013-02-03 11:25:00,20.1,18.1,30.03,West,271,4.0,4.0,92,0.00,,,0.00,Wunderground v.1.15,2013-02-03 16:25:00,
2013-02-03 11:30:00,20.5,18.3,30.03,West,269,2.0,4.0,91,0.00,,,0.00,Wunderground v.1.15,2013-02-03 16:30:00,
2013-02-03 11:40:00,20.9,18.7,30.03,WNW,285,3.0,6.0,91,0.00,,,0.00,Wunderground v.1.15,2013-02-03 16:40:00,
2013-02-03 11:45:00,21.1,18.6,30.03,NNW,327,4.0,6.0,90,0.00,,,0.00,Wunderground v.1.15,2013-02-03 16:45:00,
2013-02-03 11:50:00,21.1,18.6,30.04,West,277,4.0,4.0,90,0.00,,,0.00,Wunderground v.1.15,2013-02-03 16:50:00,
2013-02-03 11:55:00,21.4,18.9,30.04,WSW,254,3.0,4.0,90,0.00,,,0.00,Wunderground v.1.15,2013-02-03 16:55:00,
2013-02-03 12:00:00,21.6,18.9,30.04,SSW,212,3.0,4.0,89,0.00,,,0.00,Wunderground v.1.15,2013-02-03 17:00:00,
2013-02-03 12:10:00,21.9,19.2,30.03,West,260,3.0,3.0,89,0.00,,,0.00,Wunderground v.1.15,2013-02-03 17:10:00,
2013-02-03 12:15:00,22.0,19.0,30.03,SW,236,3.0,5.0,88,0.00,,,0.00,Wunderground v.1.15,2013-02-03 17:15:00,
2013-02-03 12:20:00,22.0,19.3,30.03,WNW,282,3.0,3.0,89,0.00,,,0.00,Wunderground v.1.15,2013-02-03 17:20:00,
2013-02-03 12:25:00,22.2,19.5,30.03,WSW,250,4.0,8.0,89,0.00,,,0.00,Wunderground v.1.15,2013-02-03 17:25:00,
2013-02-03 12:30:00,22.3,19.3,30.03,WSW,240,4.0,5.0,88,0.00,,,0.00,Wunderground v.1.15,2013-02-03 17:30:00,
2013-02-03 12:35:00,22.5,19.7,30.03,West,277,3.0,5.0,89,0.00,,,0.00,Wunderground v.1.15,2013-02-03 17:35:00,
2013-02-03 12:45:00,22.9,19.9,30.04,WNW,290,6.0,7.0,88,0.00,,,0.00,Wunderground v.1.15,2013-02-03 17:45:00,
2013-02-03 12:50:00,23.2,19.6,30.04,NW,306,6.0,9.0,86,0.00,,,0.00,Wunderground v.1.15,2013-02-03 17:50:00,
2013-02-03 12:55:00,23.4,19.6,30.04,WNW,296,7.0,9.0,85,0.00,,,0.00,Wunderground v.1.15,2013-02-03 17:55:00,
2013-02-03 13:00:00,23.4,19.3,30.05,NW,310,7.0,7.0,84,0.00,,,0.00,Wunderground v.1.15,2013-02-03 18:00:00,
2013-02-03 13:05:00,23.4,19.3,30.05,NW,316,7.0,9.0,84,0.00,,,0.00,Wunderground v.1.15,2013-02-03 18:05:00,
2013-02-03 13:15:00,23.8,19.7,30.05,West,271,6.0,8.0,84,0.00,,,0.00,Wunderground v.1.15,2013-02-03 18:15:00,
2013-02-03 13:20:00,23.7,19.6,30.05,NW,309,8.0,9.0,84,0.00,,,0.00,Wunderground v.1.15,2013-02-03 18:20:00,
2013-02-03 13:25:00,23.7,19.6,30.05,NNW,327,7.0,9.0,84,0.00,,,0.00,Wunderground v.1.15,2013-02-03 18:25:00,
2013-02-03 13:30:00,23.8,19.4,30.05,NW,317,7.0,9.0,83,0.00,,,0.00,Wunderground v.1.15,2013-02-03 18:30:00,
2013-02-03 13:35:00,23.6,18.9,30.05,WNW,302,9.0,9.0,82,0.00,,,0.00,Wunderground v.1.15,2013-02-03 18:35:00,
2013-02-03 13:40:00,23.6,18.6,30.05,West,279,11.0,12.0,81,0.00,,,0.00,Wunderground v.1.15,2013-02-03 18:40:00,
2013-02-03 13:50:00,24.2,19.2,30.05,WNW,283,7.0,7.0,81,0.00,,,0.00,Wunderground v.1.15,2013-02-03 18:50:00,
2013-02-03 13:55:00,24.1,19.4,30.05,WNW,298,7.0,7.0,82,0.00,,,0.00,Wunderground v.1.15,2013-02-03 18:55:00,
2013-02-03 14:00:00,23.9,19.5,30.05,WNW,295,8.0,9.0,83,0.00,,,0.00,Wunderground v.1.15,2013-02-03 19:00:00,
2013-02-03 14:05:00,24.2,20.3,30.05,WNW,303,8.0,9.0,85,0.00,,,0.00,Wunderground v.1.15,2013-02-03 19:05:00,
2013-02-03 14:10:00,24.3,19.9,30.05,NW,309,8.0,8.0,83,0.00,,,0.00,Wunderground v.1.15,2013-02-03 19:10:00,
2013-02-03 14:20:00,24.5,18.3,30.05,WNW,283,9.0,9.0,77,0.00,,,0.00,Wunderground v.1.15,2013-02-03 19:20:00,
2013-02-03 14:25:00,24.0,17.2,30.06,SW,227,10.0,10.0,75,0.00,,,0.00,Wunderground v.1.15,2013-02-03 19:25:00,
2013-02-03 14:30:00,24.0,17.8,30.06,NW,309,10.0,10.0,77,0.00,,,0.00,Wunderground v.1.15,2013-02-03 19:30:00,
2013-02-03 14:35:00,23.9,18.0,30.06,NW,319,9.0,11.0,78,0.00,,,0.00,Wunderground v.1.15,2013-02-03 19:35:00,
2013-02-03 14:40:00,23.8,17.9,30.06,West,277,10.0,10.0,78,0.00,,,0.00,Wunderground v.1.15,2013-02-03 19:40:00,
2013-02-03 14:45:00,23.7,18.4,30.07,WSW,253,11.0,12.0,80,0.00,,,0.00,Wunderground v.1.15,2013-02-03 19:45:00,
2013-02-03 14:55:00,23.7,19.0,30.07,WNW,288,9.0,10.0,82,0.00,,,0.00,Wunderground v.1.15,2013-02-03 19:55:00,
2013-02-03 15:00:00,23.9,19.5,30.07,NNW,339,7.0,7.0,83,0.00,,,0.00,Wunderground v.1.15,2013-02-03 20:00:00,
2013-02-03 15:05:00,23.9,18.9,30.08,NW,311,7.0,15.0,81,0.00,,,0.00,Wunderground v.1.15,2013-02-03 20:05:00,
2013-02-03 15:10:00,24.0,19.3,30.08,West,272,9.0,9.0,82,0.00,,,0.00,Wunderground v.1.15,2013-02-03 20:10:00,
2013-02-03 15:15:00,24.2,19.2,30.08,NW,313,8.0,9.0,81,0.00,,,0.00,Wunderground v.1.15,2013-02-03 20:15:00,
2013-02-03 15:25:00,24.4,19.1,30.08,SW,234,7.0,10.0,80,0.00,,,0.00,Wunderground v.1.15,2013-02-03 20:25:00,
2013-02-03 15:30:00,24.5,18.9,30.09,West,259,8.0,8.0,79,0.00,,,0.00,Wunderground v.1.15,2013-02-03 20:30:00,
2013-02-03 15:35:00,24.7,18.8,30.09,WNW,302,8.0,8.0,78,0.00,,,0.00,Wunderground v.1.15,2013-02-03 20:35:00,
2013-02-03 15:40:00,24.9,18.7,30.09,WNW,299,6.0,6.0,77,0.00,,,0.00,Wunderground v.1.15,2013-02-03 20:40:00,
2013-02-03 15:45:00,25.1,19.2,30.09,WNW,283,6.0,7.0,78,0.00,,,0.00,Wunderground v.1.15,2013-02-03 20:45:00,
2013-02-03 15:50:00,25.1,19.2,30.09,West,277,6.0,8.0,78,0.00,,,0.00,Wunderground v.1.15,2013-02-03 20:50:00,
2013-02-03 16:00:00,25.0,19.1,30.09,NW,311,8.0,9.0,78,0.00,,,0.00,Wunderground v.1.15,2013-02-03 21:00:00,
2013-02-03 16:05:00,25.1,19.2,30.10,WSW,250,8.0,10.0,78,0.00,,,0.00,Wunderground v.1.15,2013-02-03 21:05:00,
2013-02-03 16:15:00,24.9,19.3,30.10,WNW,293,7.0,7.0,79,0.00,,,0.00,Wunderground v.1.15,2013-02-03 21:15:00,
2013-02-03 16:20:00,25.0,19.1,30.10,NW,304,7.0,7.0,78,0.00,,,0.00,Wunderground v.1.15,2013-02-03 21:20:00,
2013-02-03 16:25:00,25.2,18.7,30.10,West,273,7.0,7.0,76,0.00,,,0.00,Wunderground v.1.15,2013-02-03 21:25:00,
2013-02-03 16:35:00,25.5,18.4,30.10,NW,311,8.0,8.0,74,0.00,,,0.00,Wunderground v.1.15,2013-02-03 21:35:00,
2013-02-03 16:45:00,25.1,18.0,30.10,West,279,7.0,9.0,74,0.00,,,0.00,Wunderground v.1.15,2013-02-03 21:45:00,
2013-02-03 16:50:00,25.1,17.7,30.11,West,275,7.0,8.0,73,0.00,,,0.00,Wunderground v.1.15,2013-02-03 21:50:00,
2013-02-03 16:55:00,25.1,17.7,30.11,West,281,6.0,8.0,73,0.00,,,0.00,Wunderground v.1.15,2013-02-03 21:55:00,
2013-02-03 17:00:00,25.2,17.4,30.11,West,278,6.0,6.0,72,0.00,,,0.00,Wunderground v.1.15,2013-02-03 22:00:00,
2013-02-03 17:05:00,25.4,17.6,30.11,WNW,290,6.0,6.0,72,0.00,,,0.00,Wunderground v.1.15,2013-02-03 22:05:00,
2013-02-03 17:10:00,25.3,17.2,30.10,West,278,5.0,6.0,71,0.00,,,0.00,Wunderground v.1.15,2013-02-03 22:10:00,
2013-02-03 17:15:00,25.2,17.1,30.11,NW,308,5.0,6.0,71,0.00,,,0.00,Wunderground v.1.15,2013-02-03 22:15:00,
2013-02-03 17:20:00,25.1,17.3,30.10,WNW,289,5.0,5.0,72,0.00,,,0.00,Wunderground v.1.15,2013-02-03 22:20:00,
2013-02-03 17:25:00,24.9,17.1,30.10,West,277,4.0,5.0,72,0.00,,,0.00,Wunderground v.1.15,2013-02-03 22:25:00,
2013-02-03 17:30:00,24.6,16.9,30.10,WNW,282,5.0,6.0,72,0.00,,,0.00,Wunderground v.1.15,2013-02-03 22:30:00,
2013-02-03 17:40:00,24.3,16.6,30.10,WNW,300,5.0,5.0,72,0.00,,,0.00,Wunderground v.1.15,2013-02-03 22:40:00,
2013-02-03 17:45:00,24.2,16.1,30.10,WNW,286,5.0,5.0,71,0.00,,,0.00,Wunderground v.1.15,2013-02-03 22:45:00,
2013-02-03 17:50:00,24.0,16.0,30.10,West,273,4.0,4.0,71,0.00,,,0.00,Wunderground v.1.15,2013-02-03 22:50:00,
2013-02-03 17:55:00,23.9,16.2,30.10,WSW,255,3.0,4.0,72,0.00,,,0.00,Wunderground v.1.15,2013-02-03 22:55:00,
2013-02-03 18:00:00,23.8,16.1,30.10,WNW,290,3.0,3.0,72,0.00,,,0.00,Wunderground v.1.15,2013-02-03 23:00:00,
2013-02-03 18:05:00,23.7,16.3,30.10,SW,227,3.0,4.0,73,0.00,,,0.00,Wunderground v.1.15,2013-02-03 23:05:00,
2013-02-03 18:15:00,23.6,16.5,30.10,West,281,3.0,6.0,74,0.00,,,0.00,Wunderground v.1.15,2013-02-03 23:15:00,
2013-02-03 18:20:00,23.6,16.5,30.10,West,277,4.0,7.0,74,0.00,,,0.00,Wunderground v.1.15,2013-02-03 23:20:00,
2013-02-03 18:25:00,23.5,16.4,30.10,WSW,253,4.0,7.0,74,0.00,,,0.00,Wunderground v.1.15,2013-02-03 23:25:00,
2013-02-03 18:30:00,23.4,16.3,30.10,WSW,245,3.0,3.0,74,0.00,,,0.00,Wunderground v.1.15,2013-02-03 23:30:00,
2013-02-03 18:35:00,23.2,16.4,30.11,SW,229,3.0,4.0,75,0.00,,,0.00,Wunderground v.1.15,2013-02-03 23:35:00,
2013-02-03 18:45:00,23.1,16.4,30.11,West,262,2.0,4.0,75,0.00,,,0.00,Wunderground v.1.15,2013-02-03 23:45:00,
2013-02-03 18:50:00,23.0,16.3,30.11,West,260,2.0,4.0,75,0.00,,,0.00,Wunderground v.1.15,2013-02-03 23:50:00,
2013-02-03 18:55:00,23.1,16.4,30.11,WSW,248,3.0,4.0,75,0.00,,,0.00,Wunderground v.1.15,2013-02-03 23:55:00,
2013-02-03 19:00:00,23.2,16.4,30.11,SW,223,3.0,4.0,75,0.00,,,0.00,Wunderground v.1.15,2013-02-04 00:00:00,
2013-02-03 19:05:00,23.3,16.5,30.11,West,262,3.0,4.0,75,0.00,,,0.00,Wunderground v.1.15,2013-02-04 00:05:00,
2013-02-03 19:10:00,23.1,16.4,30.11,WSW,239,2.0,4.0,75,0.00,,,0.00,Wunderground v.1.15,2013-02-04 00:10:00,
2013-02-03 19:20:00,22.9,15.8,30.10,WSW,238,2.0,4.0,74,0.00,,,0.00,Wunderground v.1.15,2013-02-04 00:20:00,
2013-02-03 19:25:00,22.9,15.8,30.10,SW,226,2.0,4.0,74,0.00,,,0.00,Wunderground v.1.15,2013-02-04 00:25:00,
2013-02-03 19:30:00,22.7,15.7,30.10,WSW,255,2.0,4.0,74,0.00,,,0.00,Wunderground v.1.15,2013-02-04 00:30:00,
2013-02-03 19:35:00,22.5,15.5,30.10,SW,223,2.0,4.0,74,0.00,,,0.00,Wunderground v.1.15,2013-02-04 00:35:00,
2013-02-03 19:40:00,22.4,15.7,30.10,SW,232,2.0,4.0,75,0.00,,,0.00,Wunderground v.1.15,2013-02-04 00:40:00,
2013-02-03 19:50:00,22.3,15.6,30.09,WSW,242,1.0,4.0,75,0.00,,,0.00,Wunderground v.1.15,2013-02-04 00:50:00,
2013-02-03 19:55:00,22.2,15.5,30.10,WSW,242,1.0,4.0,75,0.00,,,0.00,Wunderground v.1.15,2013-02-04 00:55:00,
2013-02-03 20:00:00,22.2,15.5,30.10,SW,227,2.0,2.0,75,0.00,,,0.00,Wunderground v.1.15,2013-02-04 01:00:00,
2013-02-03 20:05:00,22.2,15.8,30.10,SW,228,1.0,4.0,76,0.00,,,0.00,Wunderground v.1.15,2013-02-04 01:05:00,
2013-02-03 20:10:00,22.2,15.8,30.10,SSW,213,1.0,4.0,76,0.00,,,0.00,Wunderground v.1.15,2013-02-04 01:10:00,
2013-02-03 20:15:00,22.2,15.8,30.10,SW,217,2.0,4.0,76,0.00,,,0.00,Wunderground v.1.15,2013-02-04 01:15:00,
2013-02-03 20:25:00,22.3,15.9,30.10,SSW,207,1.0,4.0,76,0.00,,,0.00,Wunderground v.1.15,2013-02-04 01:25:00,
2013-02-03 20:30:00,22.3,15.9,30.10,SSW,207,1.0,4.0,76,0.00,,,0.00,Wunderground v.1.15,2013-02-04 01:30:00,
2013-02-03 20:35:00,22.3,15.9,30.10,SSW,207,1.0,4.0,76,0.00,,,0.00,Wunderground v.1.15,2013-02-04 01:35:00,
2013-02-03 20:40:00,22.3,15.9,30.10,SSW,207,1.0,4.0,76,0.00,,,0.00,Wunderground v.1.15,2013-02-04 01:40:00,
2013-02-03 20:45:00,22.4,16.0,30.10,SSW,209,1.0,4.0,76,0.00,,,0.00,Wunderground v.1.15,2013-02-04 01:45:00,
2013-02-03 20:55:00,22.5,16.1,30.10,SSW,209,1.0,4.0,76,0.00,,,0.00,Wunderground v.1.15,2013-02-04 01:55:00,
2013-02-03 21:00:00,22.5,16.1,30.10,SSW,209,1.0,4.0,76,0.00,,,0.00,Wunderground v.1.15,2013-02-04 02:00:00,
2013-02-03 21:05:00,22.4,16.0,30.10,SSW,209,1.0,4.0,76,0.00,,,0.00,Wunderground v.1.15,2013-02-04 02:05:00,
2013-02-03 21:10:00,22.4,16.0,30.10,SSW,209,2.0,2.0,76,0.00,,,0.00,Wunderground v.1.15,2013-02-04 02:10:00,
2013-02-03 21:15:00,22.4,16.0,30.10,WSW,247,2.0,4.0,76,0.00,,,0.00,Wunderground v.1.15,2013-02-04 02:15:00,
2013-02-03 21:20:00,22.4,15.7,30.10,SW,214,2.0,4.0,75,0.00,,,0.00,Wunderground v.1.15,2013-02-04 02:20:00,
2013-02-03 21:30:00,22.3,15.6,30.10,SW,223,2.0,4.0,75,0.00,,,0.00,Wunderground v.1.15,2013-02-04 02:30:00,
2013-02-03 21:35:00,22.2,15.5,30.10,SW,223,2.0,4.0,75,0.00,,,0.00,Wunderground v.1.15,2013-02-04 02:35:00,
2013-02-03 21:40:00,22.2,15.5,30.10,SW,223,2.0,2.0,75,0.00,,,0.00,Wunderground v.1.15,2013-02-04 02:40:00,
2013-02-03 21:45:00,22.1,15.4,30.10,SW,223,1.0,4.0,75,0.00,,,0.00,Wunderground v.1.15,2013-02-04 02:45:00,
2013-02-03 21:50:00,22.0,15.6,30.10,WSW,238,1.0,1.0,76,0.00,,,0.00,Wunderground v.1.15,2013-02-04 02:50:00,
2013-02-03 22:00:00,22.0,15.9,30.11,SW,217,1.0,4.0,77,0.00,,,0.00,Wunderground v.1.15,2013-02-04 03:00:00,
2013-02-03 22:05:00,22.1,15.7,30.11,SW,225,2.0,4.0,76,0.00,,,0.00,Wunderground v.1.15,2013-02-04 03:05:00,
2013-02-03 22:10:00,22.2,15.8,30.11,SSW,211,2.0,2.0,76,0.00,,,0.00,Wunderground v.1.15,2013-02-04 03:10:00,
2013-02-03 22:15:00,22.4,16.0,30.12,WSW,240,2.0,4.0,76,0.00,,,0.00,Wunderground v.1.15,2013-02-04 03:15:00,
2013-02-03 22:20:00,22.4,16.0,30.12,SSW,194,2.0,4.0,76,0.00,,,0.00,Wunderground v.1.15,2013-02-04 03:20:00,
2013-02-03 22:25:00,22.5,16.1,30.12,SSW,194,1.0,4.0,76,0.00,,,0.00,Wunderground v.1.15,2013-02-04 03:25:00,
2013-02-03 22:35:00,22.5,16.1,30.11,SSW,195,2.0,4.0,76,0.00,,,0.00,Wunderground v.1.15,2013-02-04 03:35:00,
2013-02-03 22:40:00,22.5,16.1,30.11,SSW,195,1.0,1.0,76,0.00,,,0.00,Wunderground v.1.15,2013-02-04 03:40:00,
2013-02-03 22:45:00,22.6,16.2,30.11,SW,232,1.0,4.0,76,0.00,,,0.00,Wunderground v.1.15,2013-02-04 03:45:00,
2013-02-03 22:50:00,22.6,16.2,30.11,WSW,237,2.0,2.0,76,0.00,,,0.00,Wunderground v.1.15,2013-02-04 03:50:00,
2013-02-03 23:00:00,22.6,16.2,30.11,SSW,211,1.0,4.0,76,0.00,,,0.00,Wunderground v.1.15,2013-02-04 04:00:00,
2013-02-03 23:05:00,22.6,16.2,30.11,SSW,211,2.0,4.0,76,0.00,,,0.00,Wunderground v.1.15,2013-02-04 04:05:00,
2013-02-03 23:15:00,22.6,16.2,30.11,SSW,211,1.0,4.0,76,0.00,,,0.00,Wunderground v.1.15,2013-02-04 04:15:00,
2013-02-03 23:20:00,22.6,16.5,30.11,SSW,211,1.0,4.0,77,0.00,,,0.00,Wunderground v.1.15,2013-02-04 04:20:00,
2013-02-03 23:25:00,22.6,16.5,30.11,SSW,211,1.0,4.0,77,0.00,,,0.00,Wunderground v.1.15,2013-02-04 04:25:00,
2013-02-03 23:30:00,22.6,16.5,30.11,SSW,211,1.0,1.0,77,0.00,,,0.00,Wunderground v.1.15,2013-02-04 04:30:00,
2013-02-03 23:40:00,22.6,16.5,30.11,SSW,211,0.0,4.0,77,0.00,,,0.00,Wunderground v.1.15,2013-02-04 04:40:00,
2013-02-03 23:45:00,22.6,16.5,30.11,SSW,211,0.0,4.0,77,0.00,,,0.00,Wunderground v.1.15,2013-02-04 04:45:00,
2013-02-03 23:50:00,22.5,16.7,30.10,SSW,211,0.0,4.0,78,0.00,,,0.00,Wunderground v.1.15,2013-02-04 04:50:00,
2013-02-03 23:55:00,22.5,16.7,30.10,SSW,211,0.0,4.0,78,0.00,,,0.00,Wunderground v.1.15,2013-02-04 04:55:00,